createdAt,value
2019-06-07T00:00:40.154Z,8.88
2019-06-07T00:03:23.643Z,8.83
2019-06-07T00:05:47.974Z,9.38
2019-06-07T00:08:28.568Z,9.80
2019-06-07T00:10:58.986Z,10.57
2019-06-07T00:13:33.697Z,9.90
2019-06-07T00:16:08.713Z,10.55
2019-06-07T00:18:43.274Z,9.88
2019-06-07T00:21:20.299Z,10.23
2019-06-07T00:23:53.942Z,10.75
2019-06-07T00:26:28.364Z,11.08
2019-06-07T00:29:03.264Z,10.10
2019-06-07T00:31:37.872Z,9.73
2019-06-07T00:34:14.062Z,11.22
2019-06-07T00:36:49.361Z,11.45
2019-06-07T00:39:25.849Z,10.73
2019-06-07T00:41:59.949Z,11.38
2019-06-07T00:44:34.278Z,11.25
2019-06-07T00:47:08.878Z,11.43
2019-06-07T00:49:43.263Z,11.03
2019-06-07T00:53:08.208Z,11.37
2019-06-07T00:54:53.949Z,11.43
2019-06-07T00:57:28.282Z,12.17
2019-06-07T01:06:12.363Z,10.93
2019-06-07T01:08:47.081Z,12.13
2019-06-07T01:11:23.479Z,12.20
2019-06-07T01:13:57.344Z,12.93
2019-06-07T01:16:55.554Z,12.47
2019-06-07T01:19:08.288Z,11.57
2019-06-07T01:21:42.811Z,11.77
2019-06-07T01:24:17.642Z,12.85
2019-06-07T01:26:52.247Z,12.00
2019-06-07T01:29:30.393Z,12.28
2019-06-07T01:32:03.891Z,12.33
2019-06-07T01:34:38.284Z,13.03
2019-06-07T01:37:12.699Z,12.58
2019-06-07T01:42:20.457Z,13.03
2019-06-07T01:44:55.948Z,12.17
2019-06-07T01:47:32.210Z,11.55
2019-06-07T01:50:07.631Z,12.30
2019-06-07T01:52:43.251Z,11.47
2019-06-07T01:55:18.814Z,12.20
2019-06-07T01:57:53.893Z,12.07
2019-06-07T02:00:32.098Z,12.40
2019-06-07T02:03:04.889Z,11.10
2019-06-07T02:05:39.288Z,11.78
2019-06-07T02:08:13.948Z,12.00
2019-06-07T02:10:48.682Z,11.57
2019-06-07T02:13:23.721Z,12.20
2019-06-07T02:15:59.010Z,12.28
2019-06-07T02:18:34.920Z,12.10
2019-06-07T02:21:09.691Z,12.63
2019-06-07T02:23:43.949Z,12.10
2019-06-07T02:26:18.341Z,11.40
2019-06-07T02:28:52.874Z,11.48
2019-06-07T02:31:28.647Z,11.90
2019-06-07T02:34:03.282Z,12.13
2019-06-07T02:36:41.449Z,12.13
2019-06-07T02:39:13.945Z,11.68
2019-06-07T02:41:48.353Z,12.23
2019-06-07T02:44:24.065Z,12.07
2019-06-07T02:46:58.947Z,12.13
2019-06-07T02:49:39.776Z,12.00
2019-06-07T02:52:09.275Z,11.48
2019-06-07T02:54:43.767Z,11.63
2019-06-07T03:00:06.309Z,11.80
2019-06-07T03:02:31.548Z,11.03
2019-06-07T03:05:03.443Z,11.00
2019-06-07T03:07:44.982Z,11.55
2019-06-07T03:10:16.663Z,11.60
2019-06-07T03:12:52.952Z,12.25
2019-06-07T03:15:37.362Z,11.70
2019-06-07T03:18:14.279Z,11.50
2019-06-07T03:21:04.576Z,10.65
2019-06-07T03:23:28.845Z,11.00
2019-06-07T03:26:04.706Z,11.45
2019-06-07T03:28:39.594Z,11.40
2019-06-07T03:33:46.946Z,11.75
2019-06-07T03:36:25.532Z,11.70
2019-06-07T03:38:57.874Z,12.23
2019-06-07T03:44:06.943Z,12.07
2019-06-07T03:46:41.818Z,12.65
2019-06-07T03:49:16.661Z,11.78
2019-06-07T03:51:50.955Z,11.95
2019-06-07T03:54:25.278Z,11.85
2019-06-07T03:56:59.787Z,12.17
2019-06-07T04:02:08.674Z,11.95
2019-06-07T04:04:43.114Z,12.10
2019-06-07T04:07:17.610Z,12.05
2019-06-07T04:09:52.130Z,11.90
2019-06-07T04:12:28.123Z,12.13
2019-06-07T04:15:02.957Z,13.45
2019-06-07T04:17:44.602Z,12.47
2019-06-07T04:20:14.321Z,12.73
2019-06-07T04:22:48.789Z,12.80
2019-06-07T04:25:23.143Z,12.90
2019-06-07T04:27:57.583Z,12.80
2019-06-07T04:30:43.659Z,13.27
2019-06-07T04:35:51.150Z,16.42
2019-06-07T04:38:26.537Z,16.97
2019-06-07T04:41:02.099Z,17.57
2019-06-07T04:43:38.738Z,17.50
2019-06-07T04:46:14.944Z,16.20
2019-06-07T04:48:51.317Z,18.15
2019-06-07T04:51:30.183Z,19.27
2019-06-07T04:54:04.934Z,19.50
2019-06-07T04:56:43.718Z,17.95
2019-06-07T04:59:58.977Z,17.65
2019-06-07T05:01:51.660Z,17.27
2019-06-07T05:04:26.147Z,17.80
2019-06-07T05:07:00.667Z,17.10
2019-06-07T05:09:37.688Z,16.43
2019-06-07T05:12:11.354Z,17.13
2019-06-07T05:14:45.725Z,16.40
2019-06-07T05:17:20.207Z,17.52
2019-06-07T05:19:54.731Z,16.52
2019-06-07T05:22:31.662Z,17.50
2019-06-07T05:25:05.017Z,16.90
2019-06-07T05:27:46.301Z,16.47
2019-06-07T05:30:59.798Z,17.32
2019-06-07T05:32:55.286Z,17.15
2019-06-07T05:35:30.648Z,16.27
2019-06-07T05:38:05.291Z,18.30
2019-06-07T05:40:47.739Z,18.13
2019-06-07T05:43:29.678Z,18.73
2019-06-07T05:46:04.106Z,18.00
2019-06-07T05:48:40.772Z,18.48
2019-06-07T05:51:15.275Z,20.15
2019-06-07T05:53:49.666Z,20.52
2019-06-07T05:58:56.949Z,19.80
2019-06-07T06:01:46.119Z,21.55
2019-06-07T06:04:07.354Z,19.85
2019-06-07T06:06:43.806Z,20.40
2019-06-07T06:09:17.944Z,20.08
2019-06-07T06:12:01.742Z,19.50
2019-06-07T06:14:28.877Z,19.15
2019-06-07T06:19:36.830Z,22.83
2019-06-07T06:22:11.951Z,20.07
2019-06-07T06:28:02.790Z,19.85
2019-06-07T06:29:57.791Z,17.30
2019-06-07T06:35:07.338Z,17.62
2019-06-07T06:37:44.247Z,18.87
2019-06-07T06:40:18.357Z,17.10
2019-06-07T06:42:52.707Z,17.02
2019-06-07T06:45:27.711Z,14.90
2019-06-07T06:50:35.951Z,14.30
2019-06-07T06:53:10.287Z,14.03
2019-06-07T06:55:49.248Z,14.00
2019-06-07T06:58:20.892Z,13.28
2019-06-07T07:01:05.798Z,13.25
2019-06-07T07:03:56.517Z,12.45
2019-06-07T07:06:25.360Z,11.90
2019-06-07T07:08:48.254Z,11.85
2019-06-07T07:11:23.567Z,12.13
2019-06-07T07:13:57.950Z,13.05
2019-06-07T07:16:32.357Z,13.73
2019-06-07T07:19:06.951Z,13.88
2019-06-07T07:21:42.054Z,11.63
2019-06-07T07:27:00.696Z,12.47
2019-06-07T07:32:07.956Z,12.45
2019-06-07T07:34:46.175Z,11.73
2019-06-07T07:37:18.882Z,11.75
2019-06-07T07:40:01.199Z,11.93
2019-06-07T07:42:29.918Z,11.97
2019-06-07T07:45:04.281Z,11.53
2019-06-07T07:48:00.740Z,12.43
2019-06-07T07:52:49.096Z,12.63
2019-06-07T07:55:24.153Z,14.30
2019-06-07T07:58:01.803Z,13.30
2019-06-07T08:01:02.721Z,13.83
2019-06-07T08:03:11.310Z,15.93
2019-06-07T08:05:47.117Z,16.02
2019-06-07T08:08:21.943Z,15.25
2019-06-07T08:11:01.311Z,14.43
2019-06-07T08:13:33.283Z,13.93
2019-06-07T08:16:14.031Z,13.55
2019-06-07T08:18:43.927Z,14.30
2019-06-07T08:21:25.320Z,13.43
2019-06-07T08:23:58.293Z,12.83
2019-06-07T08:26:30.623Z,14.30
2019-06-07T08:29:05.100Z,13.62
2019-06-07T08:31:39.344Z,13.38
2019-06-07T08:34:13.871Z,14.00
2019-06-07T08:36:48.041Z,14.00
2019-06-07T08:39:23.939Z,13.93
2019-06-07T08:42:14.338Z,14.03
2019-06-07T08:44:34.315Z,13.90
2019-06-07T08:47:20.170Z,13.43
2019-06-07T08:49:44.782Z,13.43
2019-06-07T08:54:54.213Z,11.67
2019-06-07T09:00:16.168Z,11.68
2019-06-07T09:02:38.077Z,10.37
2019-06-07T09:05:14.323Z,11.70
2019-06-07T09:08:07.241Z,12.25
2019-06-07T09:10:25.096Z,11.53
2019-06-07T09:13:05.005Z,12.23
2019-06-07T09:15:35.874Z,13.22
2019-06-07T09:18:40.152Z,13.35
2019-06-07T09:20:52.290Z,12.53
2019-06-07T09:23:26.866Z,12.90
2019-06-07T09:26:10.544Z,12.20
2019-06-07T09:28:37.716Z,11.48
2019-06-07T09:31:12.993Z,12.35
2019-06-07T09:33:47.680Z,12.47
2019-06-07T09:36:22.247Z,10.70
2019-06-07T09:38:59.538Z,10.67
2019-06-07T09:41:47.015Z,11.18
2019-06-07T09:44:21.456Z,10.30
2019-06-07T09:46:45.270Z,11.43
2019-06-07T09:49:31.361Z,11.55
2019-06-07T09:51:57.932Z,10.10
2019-06-07T09:59:42.694Z,8.33
2019-06-07T10:04:49.950Z,7.67
2019-06-07T10:07:31.668Z,6.63
2019-06-07T10:12:37.121Z,6.97
2019-06-07T10:15:11.789Z,6.80
2019-06-07T10:20:19.271Z,6.08
2019-06-07T10:22:53.711Z,6.67
2019-06-07T10:25:27.951Z,8.20
2019-06-07T10:28:03.725Z,7.07
2019-06-07T10:33:12.317Z,6.93
2019-06-07T10:35:46.867Z,7.07
2019-06-07T10:38:21.276Z,6.67
2019-06-07T10:40:55.860Z,7.63
2019-06-07T10:43:30.126Z,7.17
2019-06-07T10:46:05.706Z,6.77
2019-06-07T10:51:14.804Z,7.27
2019-06-07T10:53:48.947Z,7.40
2019-06-07T10:56:23.299Z,7.23
2019-06-07T10:58:57.728Z,7.87
2019-06-07T11:04:05.740Z,6.87
2019-06-07T11:09:14.250Z,7.37
2019-06-07T11:11:49.101Z,7.90
2019-06-07T11:14:23.713Z,7.40
2019-06-07T11:19:31.290Z,7.27
2019-06-07T11:22:08.027Z,7.90
2019-06-07T11:24:42.774Z,7.23
2019-06-07T11:27:18.978Z,7.40
2019-06-07T11:32:26.927Z,6.00
2019-06-07T11:35:01.282Z,5.95
2019-06-07T11:37:36.871Z,5.50
2019-06-07T11:40:27.754Z,5.40
2019-06-07T11:42:47.346Z,25.70
2019-06-07T11:45:21.748Z,6.47
2019-06-07T11:55:35.108Z,6.37
2019-06-07T11:58:13.365Z,6.47
2019-06-07T12:00:46.104Z,5.70
2019-06-07T12:03:20.679Z,5.90
2019-06-07T12:05:55.192Z,5.40
2019-06-07T12:08:29.750Z,5.27
2019-06-07T12:13:36.937Z,6.28
2019-06-07T12:16:11.347Z,5.20
2019-06-07T12:18:45.727Z,5.03
2019-06-07T12:23:53.940Z,4.20
2019-06-07T12:26:28.275Z,4.50
2019-06-07T12:29:02.728Z,4.27
2019-06-07T12:34:11.180Z,3.83
2019-06-07T12:36:45.729Z,3.97
2019-06-07T12:39:20.156Z,3.90
2019-06-07T12:41:54.667Z,3.30
2019-06-07T12:47:01.939Z,4.13
2019-06-07T12:49:36.279Z,4.20
2019-06-07T12:52:14.060Z,3.80
2019-06-07T12:54:47.130Z,3.80
2019-06-07T12:57:22.260Z,3.63
2019-06-07T12:59:56.708Z,3.13
2019-06-07T13:05:04.865Z,3.58
2019-06-07T13:07:39.632Z,4.03
2019-06-07T13:10:15.647Z,4.10
2019-06-07T13:12:50.294Z,3.95
2019-06-07T13:15:26.072Z,8.07
2019-06-07T13:18:00.594Z,4.80
2019-06-07T13:20:34.931Z,3.70
2019-06-07T13:23:09.265Z,4.03
2019-06-07T13:25:46.539Z,3.43
2019-06-07T13:28:20.770Z,4.23
2019-06-07T13:30:55.122Z,4.23
2019-06-07T13:33:35.415Z,4.30
2019-06-07T13:36:05.444Z,4.03
2019-06-07T13:38:39.938Z,4.25
2019-06-07T13:41:27.030Z,4.70
2019-06-07T13:43:51.637Z,4.85
2019-06-07T13:46:27.148Z,4.83
2019-06-07T13:49:01.992Z,4.40
2019-06-07T13:51:36.353Z,5.03
2019-06-07T13:54:10.931Z,5.20
2019-06-07T13:57:01.548Z,5.10
2019-06-07T13:59:22.282Z,5.58
2019-06-07T14:01:56.757Z,5.50
2019-06-07T14:07:03.985Z,5.07
2019-06-07T14:09:38.668Z,5.63
2019-06-07T14:12:13.280Z,5.20
2019-06-07T14:14:48.004Z,5.20
2019-06-07T14:17:23.332Z,5.77
2019-06-07T14:19:57.793Z,6.37
2019-06-07T14:25:05.899Z,10.13
2019-06-07T14:27:40.280Z,6.75
2019-06-07T14:30:15.129Z,5.30
2019-06-07T14:32:49.633Z,6.07
2019-06-07T14:35:24.624Z,5.65
2019-06-07T14:37:59.096Z,6.70
2019-06-07T14:40:34.067Z,7.43
2019-06-07T14:43:08.732Z,6.37
2019-06-07T14:48:16.690Z,6.50
2019-06-07T14:53:24.653Z,7.30
2019-06-07T14:55:59.184Z,7.70
2019-06-07T14:58:42.527Z,7.03
2019-06-07T15:01:09.886Z,7.73
2019-06-07T15:03:44.335Z,7.43
2019-06-07T15:06:18.689Z,6.47
2019-06-07T15:08:53.291Z,7.20
2019-06-07T15:11:28.916Z,6.40
2019-06-07T15:14:03.281Z,17.25
2019-06-07T15:16:37.997Z,11.40
2019-06-07T15:19:12.671Z,6.83
2019-06-07T15:21:46.943Z,7.65
2019-06-07T15:24:22.333Z,7.20
2019-06-07T15:26:58.117Z,6.47
2019-06-07T15:29:33.832Z,6.90
2019-06-07T15:32:08.514Z,6.87
2019-06-07T15:34:43.704Z,7.00
2019-06-07T15:39:51.699Z,6.37
2019-06-07T15:45:01.596Z,6.63
2019-06-07T15:52:43.948Z,6.10
2019-06-07T15:55:18.736Z,6.77
2019-06-07T16:00:25.988Z,6.90
2019-06-07T16:03:00.800Z,6.90
2019-06-07T16:05:36.403Z,6.30
2019-06-07T16:08:10.962Z,6.20
2019-06-07T16:10:45.308Z,6.20
2019-06-07T16:13:19.780Z,5.63
2019-06-07T16:18:26.979Z,5.90
2019-06-07T16:21:01.429Z,7.20
2019-06-07T16:26:10.075Z,6.20
2019-06-07T16:28:44.702Z,6.63
2019-06-07T16:33:51.955Z,6.28
2019-06-07T16:36:26.288Z,6.73
2019-06-07T16:39:00.740Z,6.90
2019-06-07T16:41:38.324Z,7.07
2019-06-07T16:45:40.893Z,9.53
2019-06-07T16:48:15.936Z,6.57
2019-06-07T16:50:50.351Z,7.03
2019-06-07T16:53:24.953Z,8.78
2019-06-07T16:55:59.281Z,9.93
2019-06-07T16:58:33.772Z,7.80
2019-06-07T17:03:43.461Z,6.53
2019-06-07T17:06:17.949Z,6.90
2019-06-07T17:08:52.403Z,7.00
2019-06-07T17:11:26.955Z,7.73
2019-06-07T17:14:01.315Z,7.35
2019-06-07T17:16:35.893Z,8.07
2019-06-07T17:19:10.318Z,7.20
2019-06-07T17:21:45.392Z,7.47
2019-06-07T17:24:20.288Z,6.87
2019-06-07T17:26:54.956Z,7.70
2019-06-07T17:29:29.134Z,7.60
2019-06-07T17:32:03.779Z,6.70
2019-06-07T17:34:38.292Z,7.60
2019-06-07T17:37:12.747Z,8.43
2019-06-07T17:44:54.087Z,16.83
2019-06-07T17:50:16.959Z,8.93
2019-06-07T17:52:52.080Z,7.77
2019-06-07T17:55:26.663Z,7.83
2019-06-07T17:58:00.953Z,7.93
2019-06-07T18:00:51.307Z,7.90
2019-06-07T18:03:25.820Z,7.13
2019-06-07T18:06:02.355Z,7.50
2019-06-07T18:08:37.349Z,7.90
2019-06-07T18:11:11.788Z,14.20
2019-06-07T18:16:21.320Z,7.87
2019-06-07T18:18:55.797Z,8.47
2019-06-07T18:29:10.302Z,8.03
2019-06-07T18:31:44.369Z,8.27
2019-06-07T18:34:18.877Z,7.90
2019-06-07T18:36:53.194Z,8.95
2019-06-07T18:39:28.240Z,8.85
2019-06-07T18:42:05.349Z,8.77
2019-06-07T18:44:40.957Z,14.47
2019-06-07T18:47:15.283Z,34.33
2019-06-07T18:49:49.934Z,10.28
2019-06-07T18:55:05.068Z,8.13
2019-06-07T18:57:39.546Z,7.73
2019-06-07T19:00:15.296Z,7.37
2019-06-07T19:02:49.806Z,7.17
2019-06-07T19:05:24.291Z,7.60
2019-06-07T19:07:59.852Z,7.67
2019-06-07T19:10:34.709Z,7.80
2019-06-07T19:13:10.750Z,11.10
2019-06-07T19:18:18.785Z,6.90
2019-06-07T19:23:26.766Z,7.53
2019-06-07T19:28:35.292Z,7.67
2019-06-07T19:31:10.113Z,7.13
2019-06-07T19:33:49.023Z,9.40
2019-06-07T19:36:21.330Z,8.97
2019-06-07T19:38:55.869Z,8.60
2019-06-07T19:41:30.755Z,8.50
2019-06-07T19:44:05.407Z,7.03
2019-06-07T19:46:41.304Z,7.60
2019-06-07T19:49:15.947Z,6.97
2019-06-07T19:51:52.857Z,6.80
2019-06-07T19:54:27.579Z,6.47
2019-06-07T19:57:03.618Z,7.07
2019-06-07T19:59:38.509Z,7.23
2019-06-07T20:02:13.292Z,7.03
2019-06-07T20:04:48.807Z,7.30
2019-06-07T20:07:40.704Z,6.67
2019-06-07T20:10:28.314Z,6.30
2019-06-07T20:13:03.152Z,8.40
2019-06-07T20:15:37.691Z,7.70
2019-06-07T20:18:12.289Z,7.17
2019-06-07T20:20:47.068Z,8.00
2019-06-07T20:23:21.654Z,18.07
2019-06-07T20:25:56.292Z,17.77
2019-06-07T20:28:30.709Z,6.87
2019-06-07T20:33:38.284Z,6.60
2019-06-07T20:36:13.336Z,7.07
2019-06-07T20:38:49.085Z,6.97
2019-06-07T20:41:24.381Z,6.27
2019-06-07T20:43:59.708Z,6.23
2019-06-07T20:49:09.304Z,6.00
2019-06-07T20:51:43.963Z,5.65
2019-06-07T20:54:18.836Z,6.17
2019-06-07T21:02:00.743Z,5.93
2019-06-07T21:04:35.511Z,6.00
2019-06-07T21:07:10.365Z,6.30
2019-06-07T21:09:44.952Z,5.57
2019-06-07T21:12:19.711Z,5.70
2019-06-07T21:14:54.295Z,5.50
2019-06-07T21:17:28.763Z,6.03
2019-06-07T21:20:05.475Z,6.20
2019-06-07T21:22:39.749Z,6.30
2019-06-07T21:27:46.955Z,6.35
2019-06-07T21:30:22.681Z,6.33
2019-06-07T21:35:30.438Z,6.40
2019-06-07T21:38:07.849Z,6.00
2019-06-07T21:40:42.415Z,5.53
2019-06-07T21:43:19.793Z,5.80
2019-06-07T21:51:02.458Z,6.25
2019-06-07T21:53:36.986Z,6.50
2019-06-07T21:56:13.445Z,6.03
2019-06-07T21:58:48.091Z,7.77
2019-06-07T22:01:41.275Z,6.40
2019-06-07T22:04:15.953Z,5.50
2019-06-07T22:06:52.256Z,6.30
2019-06-07T22:09:27.351Z,5.93
2019-06-07T22:12:01.798Z,5.55
2019-06-07T22:14:36.295Z,5.85
2019-06-07T22:17:10.921Z,5.90
2019-06-07T22:19:45.322Z,5.90
2019-06-07T22:22:20.084Z,6.03
2019-06-07T22:27:28.948Z,6.03
2019-06-07T22:30:03.793Z,5.75
2019-06-07T22:35:12.999Z,5.77
2019-06-07T22:37:47.770Z,5.27
2019-06-07T22:45:28.321Z,6.10
2019-06-07T22:48:02.993Z,6.00
2019-06-07T22:50:40.028Z,5.43
2019-06-07T22:53:15.542Z,5.40
2019-06-07T22:55:56.566Z,5.67
2019-06-07T22:58:31.269Z,4.97
2019-06-07T23:01:05.954Z,5.90
2019-06-07T23:06:13.274Z,6.00
2019-06-07T23:08:48.111Z,6.20
2019-06-07T23:11:22.628Z,6.10
2019-06-07T23:13:57.277Z,5.83
2019-06-07T23:16:33.156Z,5.30
2019-06-07T23:19:07.944Z,6.10
2019-06-07T23:26:48.758Z,6.57
2019-06-07T23:31:56.270Z,3.70
2019-06-07T23:34:31.771Z,3.00
2019-06-07T23:37:06.273Z,2.60
2019-06-07T23:39:41.273Z,2.77
2019-06-07T23:42:15.718Z,2.40
2019-06-07T23:47:23.664Z,2.23
2019-06-07T23:49:58.281Z,1.50
2019-06-07T23:52:32.780Z,1.70
2019-06-07T23:55:07.580Z,1.63
2019-06-07T23:57:42.125Z,1.62
